Saturday, December 20, 2014, 12:12 PM EST

KOFP, Hanover County Municipal

Location: Ashland, VA, United States Lat: 37.7
Local Time: 12:12 PM EST (17:12 GMT) Lon: -77.433
Time Zone: US/Eastern Elev: 203 ft

Show me the last for .
Show Decoded

2014-12-20 11:54 METAR KOFP 201654Z AUTO VRB03KT 10SM BKN100 02/M06 A3032 RMK AO2 SLP268
                 T00171056 =
2014-12-20 10:54 METAR KOFP 201554Z AUTO 05004KT 10SM SCT110 01/M06 A3034 RMK AO2 SLP277
                 T00061061 =
2014-12-20 09:54 METAR KOFP 201454Z AUTO 00000KT 10SM CLR 00/M05 A3034 RMK AO2 SLP276 T00001050
                 50012 =
2014-12-20 08:54 METAR KOFP 201354Z AUTO 29003KT 10SM CLR M01/M05 A3035 RMK AO2 SLP277 T10111050
                 =
2014-12-20 07:54 METAR KOFP 201254Z AUTO 30003KT 9SM CLR M03/M05 A3034 RMK AO2 SLP277 T10281050 =
2014-12-20 06:54 METAR KOFP 201154Z AUTO 00000KT 10SM CLR M03/M05 A3031 RMK AO2 SLP265 T10281050
                 11011 21039 53010 =
2014-12-20 05:54 METAR KOFP 201054Z AUTO 00000KT 10SM CLR M02/M05 A3031 RMK AO2 SLP265 T10221050
                 =
2014-12-20 04:54 METAR KOFP 200954Z AUTO 00000KT 10SM CLR M04/M06 A3027 RMK AO2 SLP252 T10391056
                 =
2014-12-20 03:54 METAR KOFP 200854Z AUTO 00000KT 10SM CLR M03/M06 A3028 RMK AO2 SLP254 T10331056
                 50007 =
2014-12-20 02:54 METAR KOFP 200754Z AUTO 00000KT 10SM CLR M03/M06 A3029 RMK AO2 SLP258 T10331056
                 =
2014-12-20 01:54 METAR KOFP 200654Z AUTO 00000KT 10SM CLR M03/M06 A3027 RMK AO2 SLP253 T10281056
                 =
2014-12-20 00:54 METAR KOFP 200554Z AUTO 02004KT 10SM CLR M02/M06 A3026 RMK AO2 SLP248 T10171056
                 10011 21028 50001 =
2014-12-19 23:54 METAR KOFP 200454Z AUTO 00000KT 10SM CLR M01/M06 A3028 RMK AO2 SLP254 T10111061
                 400671033 =
2014-12-19 22:54 METAR KOFP 200354Z AUTO 00000KT 10SM CLR 00/M06 A3027 RMK AO2 SLP251 T00001056 =
2014-12-19 21:54 METAR KOFP 200254Z AUTO VRB05KT 10SM CLR 01/M06 A3026 RMK AO2 SLP246 T00061056
                 51010 =
2014-12-19 20:54 METAR KOFP 200154Z AUTO VRB04KT 10SM CLR 01/M05 A3025 RMK AO2 SLP244 T00061050 =
2014-12-19 19:54 METAR KOFP 200054Z AUTO 00000KT 10SM CLR M02/M04 A3024 RMK AO2 SLP242 T10171044
                 =
2014-12-19 18:54 METAR KOFP 192354Z AUTO 00000KT 10SM CLR 00/M04 A3022 RMK AO2 SLP236 T00001044
                 10067 20000 53019 =
2014-12-19 17:54 METAR KOFP 192254Z AUTO VRB03KT 10SM CLR 03/M04 A3020 RMK AO2 SLP227 T00281044 =
2014-12-19 16:54 METAR KOFP 192154Z AUTO 00000KT 10SM CLR 04/M04 A3018 RMK AO2 SLP222 T00441039 =
2014-12-19 15:54 METAR KOFP 192054Z AUTO 31005KT 10SM CLR 06/M04 A3017 RMK AO2 SLP217 T00611039
                 53006 =
2014-12-19 14:54 METAR KOFP 191954Z AUTO 28008KT 10SM CLR 07/M04 A3016 RMK AO2 SLP214 T00671044 =
2014-12-19 13:54 METAR KOFP 191854Z AUTO 32005KT 10SM CLR 06/M04 A3014 RMK AO2 SLP208 T00611044 =
2014-12-19 12:54 METAR KOFP 191754Z AUTO 02003KT 10SM CLR 06/M04 A3015 RMK AO2 SLP211 T00561044
                 10061 21033 58021 =

Support USWX by starting your Amazon purchase here.